createdAt,value
2018-05-25T00:01:19.270Z,101047.05
2018-05-25T00:03:22.699Z,101084.57
2018-05-25T00:05:26.184Z,101083.19
2018-05-25T00:07:29.617Z,101090.94
2018-05-25T00:09:33.169Z,101037.48
2018-05-25T00:11:36.745Z,101078.83
2018-05-25T00:13:40.112Z,101098.88
2018-05-25T00:15:43.622Z,101097.48
2018-05-25T00:17:47.231Z,101103.05
2018-05-25T00:19:50.643Z,101086.86
2018-05-25T00:21:54.091Z,101088.27
2018-05-25T00:23:57.453Z,101095.30
2018-05-25T00:26:00.777Z,101092.26
2018-05-25T00:28:04.302Z,101099.58
2018-05-25T00:30:07.644Z,101102.11
2018-05-25T00:32:11.066Z,101102.57
2018-05-25T00:34:14.472Z,101099.58
2018-05-25T00:36:17.824Z,101095.20
2018-05-25T00:38:21.217Z,101098.14
2018-05-25T00:40:26.423Z,101090.28
2018-05-25T00:42:29.867Z,101095.42
2018-05-25T00:44:33.230Z,101098.95
2018-05-25T00:46:36.620Z,101087.67
2018-05-25T00:48:39.967Z,101096.82
2018-05-25T00:50:43.299Z,101096.42
2018-05-25T00:52:46.698Z,101073.62
2018-05-25T00:57:39.866Z,101094.21
2018-05-25T00:59:43.307Z,101092.85
2018-05-25T01:01:46.644Z,101090.75
2018-05-25T01:03:49.994Z,101089.89
2018-05-25T01:05:53.392Z,101096.95
2018-05-25T01:07:56.776Z,101093.97
2018-05-25T01:10:00.666Z,101090.11
2018-05-25T01:12:04.114Z,101085.80
2018-05-25T01:14:07.557Z,101095.39
2018-05-25T01:16:10.912Z,101086.83
2018-05-25T01:18:15.049Z,101088.70
2018-05-25T01:20:19.162Z,101095.74
2018-05-25T01:22:22.502Z,101088.35
2018-05-25T01:24:25.899Z,101090.61
2018-05-25T01:26:29.352Z,101085.38
2018-05-25T01:28:32.715Z,101081.81
2018-05-25T01:30:36.849Z,101077.47
2018-05-25T01:32:40.223Z,101083.80
2018-05-25T01:34:44.299Z,101064.17
2018-05-25T01:36:47.682Z,101075.08
2018-05-25T01:38:51.045Z,101079.00
2018-05-25T01:40:54.447Z,101070.31
2018-05-25T01:42:57.817Z,101069.94
2018-05-25T01:45:01.913Z,101076.47
2018-05-25T01:47:05.295Z,101067.81
2018-05-25T01:49:08.692Z,101066.56
2018-05-25T01:51:12.104Z,101065.16
2018-05-25T01:53:15.480Z,101068.25
2018-05-25T01:55:18.915Z,101060.44
2018-05-25T01:57:22.365Z,101070.40
2018-05-25T01:59:25.946Z,101063.59
2018-05-25T02:01:29.311Z,101063.81
2018-05-25T02:03:32.731Z,101060.22
2018-05-25T02:05:36.092Z,101059.83
2018-05-25T02:07:39.838Z,101059.77
2018-05-25T02:09:43.222Z,101064.80
2018-05-25T02:11:46.605Z,101061.38
2018-05-25T02:13:50.029Z,101062.97
2018-05-25T02:15:54.183Z,101068.14
2018-05-25T02:17:57.549Z,101065.47
2018-05-25T02:20:01.672Z,101063.75
2018-05-25T02:22:05.032Z,101064.20
2018-05-25T02:24:09.121Z,101061.50
2018-05-25T02:26:12.500Z,101056.41
2018-05-25T02:28:15.824Z,101060.64
2018-05-25T02:30:19.142Z,101055.37
2018-05-25T02:32:22.565Z,101060.52
2018-05-25T02:34:25.910Z,101063.91
2018-05-25T02:36:29.305Z,101059.39
2018-05-25T02:38:32.690Z,101050.71
2018-05-25T02:40:36.028Z,101044.53
2018-05-25T02:42:39.694Z,101052.84
2018-05-25T02:44:43.128Z,101048.53
2018-05-25T02:46:46.462Z,101058.05
2018-05-25T02:48:49.986Z,101050.37
2018-05-25T02:50:53.409Z,101053.76
2018-05-25T02:52:56.754Z,101056.30
2018-05-25T02:55:00.832Z,101058.02
2018-05-25T02:57:05.035Z,101059.45
2018-05-25T02:59:08.400Z,101041.94
2018-05-25T03:01:11.754Z,101053.38
2018-05-25T03:03:15.162Z,101058.97
2018-05-25T03:05:19.278Z,101051.59
2018-05-25T03:07:22.671Z,101050.86
2018-05-25T03:09:26.815Z,101057.64
2018-05-25T03:11:30.166Z,101067.47
2018-05-25T03:13:33.517Z,101070.02
2018-05-25T03:15:36.948Z,101071.25
2018-05-25T03:17:41.049Z,101061.18
2018-05-25T03:19:44.452Z,101067.67
2018-05-25T03:21:47.932Z,101064.56
2018-05-25T03:23:51.283Z,101074.94
2018-05-25T03:25:54.666Z,101065.85
2018-05-25T03:27:58.007Z,101068.38
2018-05-25T03:30:01.323Z,101065.30
2018-05-25T03:32:04.646Z,101065.52
2018-05-25T03:34:08.019Z,101061.88
2018-05-25T03:36:11.389Z,101063.16
2018-05-25T03:38:14.749Z,101069.92
2018-05-25T03:40:18.213Z,101071.56
2018-05-25T03:42:21.603Z,101069.48
2018-05-25T03:44:24.944Z,101072.14
2018-05-25T03:46:28.463Z,101062.86
2018-05-25T03:48:32.845Z,101076.26
2018-05-25T03:50:36.216Z,101083.54
2018-05-25T03:52:39.590Z,101083.05
2018-05-25T03:54:42.987Z,101083.01
2018-05-25T03:56:50.044Z,101080.81
2018-05-25T03:59:11.703Z,101085.09
2018-05-25T04:01:32.726Z,101082.16
2018-05-25T04:03:36.079Z,101074.33
2018-05-25T04:05:39.480Z,101083.82
2018-05-25T04:07:42.810Z,101083.80
2018-05-25T04:09:46.164Z,101088.05
2018-05-25T04:11:49.645Z,101081.97
2018-05-25T04:13:53.849Z,101086.47
2018-05-25T04:15:57.947Z,101089.91
2018-05-25T04:18:01.305Z,101085.95
2018-05-25T04:20:04.616Z,101092.41
2018-05-25T04:22:07.957Z,101087.10
2018-05-25T04:24:11.334Z,101089.39
2018-05-25T04:26:14.782Z,101087.66
2018-05-25T04:28:18.133Z,101095.09
2018-05-25T04:30:21.546Z,101089.94
2018-05-25T04:32:24.895Z,101095.82
2018-05-25T04:36:37.346Z,101092.83
2018-05-25T04:38:40.662Z,101103.03
2018-05-25T04:40:44.063Z,101101.25
2018-05-25T04:42:47.397Z,101103.20
2018-05-25T04:44:50.725Z,101101.80
2018-05-25T04:46:54.221Z,101103.47
2018-05-25T04:48:57.617Z,101108.53
2018-05-25T04:51:00.948Z,101095.30
2018-05-25T04:53:04.276Z,101116.84
2018-05-25T04:55:07.835Z,101109.62
2018-05-25T04:57:11.244Z,101107.93
2018-05-25T04:59:14.731Z,101103.40
2018-05-25T05:01:18.911Z,101110.09
2018-05-25T05:03:22.398Z,101118.50
2018-05-25T05:05:25.853Z,101128.53
2018-05-25T05:07:29.332Z,101128.48
2018-05-25T05:09:32.720Z,101122.92
2018-05-25T05:11:36.043Z,101125.72
2018-05-25T05:13:39.417Z,101119.66
2018-05-25T05:15:42.782Z,101113.13
2018-05-25T05:17:46.160Z,101128.95
2018-05-25T05:19:49.576Z,101113.50
2018-05-25T05:21:53.789Z,101119.05
2018-05-25T05:23:57.171Z,101123.19
2018-05-25T05:26:00.608Z,101125.88
2018-05-25T05:28:03.936Z,101125.02
2018-05-25T05:30:07.279Z,101125.78
2018-05-25T05:32:10.695Z,101119.99
2018-05-25T05:34:14.108Z,101124.36
2018-05-25T05:36:17.434Z,101125.77
2018-05-25T05:38:20.790Z,101113.84
2018-05-25T05:40:24.169Z,101121.89
2018-05-25T05:42:27.589Z,101127.06
2018-05-25T05:44:31.310Z,101124.53
2018-05-25T05:46:35.748Z,101125.53
2018-05-25T05:48:39.096Z,101116.86
2018-05-25T05:50:42.446Z,101123.55
2018-05-25T05:52:45.809Z,101114.80
2018-05-25T05:54:49.171Z,101112.64
2018-05-25T05:56:52.593Z,101116.11
2018-05-25T05:58:55.990Z,101121.87
2018-05-25T06:03:01.102Z,101126.27
2018-05-25T06:05:05.191Z,101130.97
2018-05-25T06:07:08.601Z,101122.53
2018-05-25T06:09:11.975Z,101131.67
2018-05-25T06:11:15.500Z,101125.18
2018-05-25T06:13:19.741Z,101138.56
2018-05-25T06:15:23.098Z,101128.67
2018-05-25T06:17:26.416Z,101131.13
2018-05-25T06:19:29.725Z,101132.11
2018-05-25T06:21:33.241Z,101128.46
2018-05-25T06:23:37.351Z,101125.41
2018-05-25T06:25:41.491Z,101137.26
2018-05-25T06:27:44.839Z,101128.55
2018-05-25T06:29:48.175Z,101124.59
2018-05-25T06:31:51.718Z,101138.27
2018-05-25T06:33:55.225Z,101080.36
2018-05-25T06:35:59.395Z,101121.78
2018-05-25T06:38:02.774Z,101139.17
2018-05-25T06:40:06.233Z,101149.90
2018-05-25T06:42:10.329Z,101155.76
2018-05-25T06:44:13.684Z,101140.78
2018-05-25T06:46:17.150Z,101153.69
2018-05-25T06:48:20.573Z,101141.87
2018-05-25T06:50:23.953Z,101149.00
2018-05-25T06:52:27.449Z,101157.07
2018-05-25T06:54:30.907Z,101155.30
2018-05-25T06:56:35.203Z,101158.81
2018-05-25T06:58:38.624Z,101158.13
2018-05-25T07:00:41.983Z,101157.81
2018-05-25T07:02:45.343Z,101154.70
2018-05-25T07:04:48.754Z,101148.90
2018-05-25T07:06:52.176Z,101157.42
2018-05-25T07:08:56.386Z,101157.55
2018-05-25T07:10:59.804Z,101153.88
2018-05-25T07:13:03.964Z,101157.88
2018-05-25T07:15:08.366Z,101153.67
2018-05-25T07:17:12.590Z,101160.72
2018-05-25T07:19:15.975Z,101162.98
2018-05-25T07:21:19.358Z,101164.22
2018-05-25T07:23:22.760Z,101168.17
2018-05-25T07:25:26.174Z,101161.11
2018-05-25T07:27:29.533Z,101166.22
2018-05-25T07:29:32.921Z,101169.41
2018-05-25T07:31:36.401Z,101163.71
2018-05-25T07:33:39.764Z,101162.82
2018-05-25T07:35:43.176Z,101171.34
2018-05-25T07:37:47.400Z,101173.83
2018-05-25T07:39:50.796Z,101178.36
2018-05-25T07:41:54.206Z,101179.23
2018-05-25T07:43:57.617Z,101183.50
2018-05-25T07:46:01.019Z,101180.59
2018-05-25T07:48:04.440Z,101181.33
2018-05-25T07:50:07.827Z,101186.16
2018-05-25T07:52:11.192Z,101182.41
2018-05-25T07:54:14.708Z,101181.97
2018-05-25T07:56:18.111Z,101186.24
2018-05-25T07:58:21.495Z,101189.37
2018-05-25T08:00:25.173Z,101190.20
2018-05-25T08:02:28.630Z,101191.31
2018-05-25T08:04:32.179Z,101192.80
2018-05-25T08:06:35.798Z,101198.06
2018-05-25T08:08:39.218Z,101194.92
2018-05-25T08:10:42.854Z,101194.20
2018-05-25T08:12:46.264Z,101194.23
2018-05-25T08:14:49.747Z,101193.44
2018-05-25T08:16:53.273Z,101192.27
2018-05-25T08:18:56.693Z,101193.90
2018-05-25T08:21:00.927Z,101194.40
2018-05-25T08:23:05.065Z,101199.66
2018-05-25T08:25:08.477Z,101201.50
2018-05-25T08:27:11.801Z,101192.52
2018-05-25T08:29:15.294Z,101199.95
2018-05-25T08:31:18.705Z,101197.88
2018-05-25T08:33:22.141Z,101194.66
2018-05-25T08:35:25.466Z,101189.20
2018-05-25T08:37:29.621Z,101193.27
2018-05-25T08:39:33.000Z,101186.64
2018-05-25T08:41:36.552Z,101188.20
2018-05-25T08:43:39.910Z,101199.63
2018-05-25T08:45:43.277Z,101153.72
2018-05-25T08:47:46.940Z,101205.16
2018-05-25T08:49:51.166Z,101200.88
2018-05-25T08:51:55.444Z,101205.84
2018-05-25T08:53:58.803Z,101199.24
2018-05-25T08:56:02.198Z,101200.16
2018-05-25T08:58:05.583Z,101208.08
2018-05-25T09:00:08.998Z,101208.03
2018-05-25T09:02:12.528Z,101206.64
2018-05-25T09:04:16.867Z,101206.32
2018-05-25T09:06:21.179Z,101207.64
2018-05-25T09:08:24.627Z,101199.75
2018-05-25T09:10:28.021Z,101207.15
2018-05-25T09:12:31.430Z,101205.36
2018-05-25T09:14:34.859Z,101208.06
2018-05-25T09:16:38.992Z,101189.30
2018-05-25T09:18:42.332Z,101206.74
2018-05-25T09:20:45.779Z,101201.06
2018-05-25T09:22:49.200Z,101210.25
2018-05-25T09:24:54.566Z,101208.09
2018-05-25T09:26:58.881Z,101201.67
2018-05-25T09:29:02.225Z,101200.34
2018-05-25T09:31:05.591Z,101196.88
2018-05-25T09:33:09.213Z,101205.17
2018-05-25T09:35:12.583Z,101201.68
2018-05-25T09:37:16.711Z,101185.09
2018-05-25T09:39:20.104Z,101196.91
2018-05-25T09:41:23.453Z,101199.11
2018-05-25T09:43:26.892Z,101192.98
2018-05-25T09:45:30.309Z,101206.48
2018-05-25T09:47:33.662Z,101197.31
2018-05-25T09:49:37.784Z,101199.92
2018-05-25T09:51:41.183Z,101197.75
2018-05-25T09:53:44.545Z,101204.73
2018-05-25T09:55:48.673Z,101197.75
2018-05-25T09:57:58.122Z,101200.38
2018-05-25T10:00:01.708Z,101194.72
2018-05-25T10:02:05.989Z,101198.61
2018-05-25T10:04:09.474Z,101203.41
2018-05-25T10:06:13.252Z,101197.26
2018-05-25T10:08:16.691Z,101197.72
2018-05-25T10:10:20.088Z,101174.09
2018-05-25T10:12:25.296Z,101208.16
2018-05-25T10:14:29.870Z,101202.53
2018-05-25T10:16:57.128Z,101200.75
2018-05-25T10:19:00.980Z,101184.62
2018-05-25T10:21:10.825Z,101190.33
2018-05-25T10:23:25.471Z,101191.22
2018-05-25T10:27:50.330Z,101179.84
2018-05-25T10:29:54.184Z,101177.65
2018-05-25T10:32:10.743Z,101178.08
2018-05-25T10:34:14.228Z,101175.44
2018-05-25T10:36:18.480Z,101178.44
2018-05-25T10:38:23.536Z,101184.02
2018-05-25T10:45:44.107Z,101169.95
2018-05-25T10:47:47.604Z,101177.38
2018-05-25T10:49:51.379Z,101179.22
2018-05-25T10:52:18.180Z,101176.19
2018-05-25T10:56:58.467Z,101179.52
2018-05-25T10:59:01.855Z,101176.92
2018-05-25T11:01:05.259Z,101177.36
2018-05-25T11:03:08.834Z,101166.04
2018-05-25T11:05:13.808Z,101156.39
2018-05-25T11:07:17.581Z,101164.61
2018-05-25T11:09:21.045Z,101175.94
2018-05-25T11:11:24.499Z,101175.85
2018-05-25T11:13:28.383Z,101153.95
2018-05-25T11:15:31.915Z,101162.69
2018-05-25T11:17:35.366Z,101168.18
2018-05-25T11:19:38.766Z,101171.19
2018-05-25T11:21:44.987Z,101173.63
2018-05-25T11:26:29.491Z,101167.70
2018-05-25T11:28:32.831Z,101168.89
2018-05-25T11:30:37.103Z,101167.93
2018-05-25T11:32:40.470Z,101165.50
2018-05-25T11:34:43.868Z,101172.20
2018-05-25T11:36:47.556Z,101163.31
2018-05-25T11:38:51.166Z,101154.56
2018-05-25T11:40:54.544Z,101160.14
2018-05-25T11:42:58.649Z,101153.57
2018-05-25T11:45:03.434Z,101154.89
2018-05-25T11:47:06.831Z,101147.67
2018-05-25T11:49:10.187Z,101143.45
2018-05-25T11:51:13.556Z,101145.95
2018-05-25T11:53:16.865Z,101143.34
2018-05-25T11:55:20.232Z,101140.06
2018-05-25T11:57:23.729Z,101142.50
2018-05-25T11:59:27.146Z,101146.72
2018-05-25T12:01:31.854Z,101150.35
2018-05-25T12:03:35.307Z,101135.89
2018-05-25T12:05:38.695Z,101136.42
2018-05-25T12:07:42.059Z,101135.16
2018-05-25T12:10:00.994Z,101135.41
2018-05-25T12:12:08.156Z,101145.57
2018-05-25T12:14:11.571Z,101142.90
2018-05-25T12:16:14.949Z,101151.20
2018-05-25T12:18:19.079Z,101153.38
2018-05-25T12:20:26.113Z,101147.45
2018-05-25T12:22:30.245Z,101143.13
2018-05-25T12:24:34.354Z,101135.97
2018-05-25T12:26:38.499Z,101146.24
2018-05-25T12:28:42.086Z,101155.48
2018-05-25T12:30:45.494Z,101133.22
2018-05-25T12:32:48.860Z,101143.75
2018-05-25T12:34:53.040Z,101065.41
2018-05-25T12:36:56.452Z,101150.78
2018-05-25T12:38:59.876Z,101120.45
2018-05-25T12:41:03.280Z,101157.55
2018-05-25T12:43:06.714Z,101150.97
2018-05-25T12:45:15.106Z,101136.19
2018-05-25T12:47:18.461Z,101154.53
2018-05-25T12:49:21.896Z,101148.40
2018-05-25T12:51:25.364Z,101150.58
2018-05-25T12:53:28.972Z,101147.14
2018-05-25T12:55:32.388Z,101151.91
2018-05-25T12:57:39.103Z,101154.48
2018-05-25T12:59:42.787Z,101151.95
2018-05-25T13:01:47.337Z,101121.81
2018-05-25T13:03:50.725Z,101151.08
2018-05-25T13:05:54.114Z,101157.55
2018-05-25T13:07:57.541Z,101160.55
2018-05-25T13:10:01.680Z,101159.55
2018-05-25T13:12:05.387Z,101157.22
2018-05-25T13:14:10.694Z,101148.38
2018-05-25T13:16:15.418Z,101159.17
2018-05-25T13:18:18.902Z,101153.86
2018-05-25T13:20:22.337Z,101157.11
2018-05-25T13:22:25.927Z,101157.95
2018-05-25T13:24:29.503Z,101161.22
2018-05-25T13:26:33.030Z,101161.95
2018-05-25T13:28:36.430Z,101152.33
2018-05-25T13:30:40.609Z,101161.02
2018-05-25T13:32:44.362Z,101145.08
2018-05-25T13:34:47.741Z,101165.45
2018-05-25T13:36:52.030Z,101160.16
2018-05-25T13:38:55.685Z,101163.79
2018-05-25T13:40:59.508Z,101133.26
2018-05-25T13:43:02.883Z,101153.44
2018-05-25T13:45:06.323Z,101142.80
2018-05-25T13:47:09.695Z,101150.48
2018-05-25T13:49:13.160Z,101145.66
2018-05-25T13:51:17.230Z,101108.09
2018-05-25T13:53:20.592Z,101155.84
2018-05-25T13:55:24.009Z,101139.41
2018-05-25T13:57:27.713Z,101148.84
2018-05-25T13:59:31.941Z,101111.70
2018-05-25T14:01:35.297Z,101137.97
2018-05-25T14:03:38.661Z,101148.41
2018-05-25T14:05:41.993Z,101138.69
2018-05-25T14:07:45.453Z,101144.91
2018-05-25T14:09:48.796Z,101149.97
2018-05-25T14:11:52.263Z,101143.82
2018-05-25T14:13:55.986Z,101139.66
2018-05-25T14:15:59.499Z,101143.44
2018-05-25T14:18:02.924Z,101145.27
2018-05-25T14:20:06.409Z,101151.91
2018-05-25T14:22:09.922Z,101151.00
2018-05-25T14:24:13.322Z,101152.75
2018-05-25T14:26:16.838Z,101150.17
2018-05-25T14:28:20.259Z,101151.93
2018-05-25T14:30:23.639Z,101146.66
2018-05-25T14:32:27.028Z,101150.31
2018-05-25T14:34:30.426Z,101145.63
2018-05-25T14:36:33.798Z,101110.72
2018-05-25T14:38:37.126Z,101153.02
2018-05-25T14:40:40.504Z,101145.02
2018-05-25T14:42:43.834Z,101147.72
2018-05-25T14:44:47.302Z,101148.62
2018-05-25T14:46:50.688Z,101145.11
2018-05-25T14:48:54.044Z,101143.34
2018-05-25T14:50:57.437Z,101147.29
2018-05-25T14:53:00.843Z,101135.11
2018-05-25T14:55:04.411Z,101149.08
2018-05-25T14:57:07.789Z,101148.17
2018-05-25T14:59:11.126Z,101144.77
2018-05-25T15:01:14.510Z,101144.81
2018-05-25T15:03:17.844Z,101156.19
2018-05-25T15:05:21.260Z,101146.58
2018-05-25T15:07:24.617Z,101152.70
2018-05-25T15:09:28.010Z,101148.80
2018-05-25T15:11:31.461Z,101145.30
2018-05-25T15:13:34.844Z,101149.69
2018-05-25T15:15:38.251Z,101150.99
2018-05-25T15:17:41.683Z,101147.97
2018-05-25T15:19:45.144Z,101148.80
2018-05-25T15:21:54.340Z,101155.36
2018-05-25T15:23:57.835Z,101145.23
2018-05-25T15:26:01.246Z,101154.78
2018-05-25T15:28:04.594Z,101149.38
2018-05-25T15:30:09.209Z,101155.48
2018-05-25T15:32:16.061Z,101155.78
2018-05-25T15:34:21.181Z,101159.68
2018-05-25T15:36:32.190Z,101143.91
2018-05-25T15:38:35.545Z,101145.58
2018-05-25T15:40:38.968Z,101138.54
2018-05-25T15:42:42.356Z,101129.77
2018-05-25T15:44:45.825Z,101128.74
2018-05-25T15:46:49.327Z,101129.25
2018-05-25T15:48:53.980Z,101135.47
2018-05-25T15:50:57.462Z,101127.73
2018-05-25T15:53:00.836Z,101117.52
2018-05-25T15:55:04.248Z,101117.00
2018-05-25T15:57:07.657Z,101114.87
2018-05-25T15:59:15.353Z,101112.05
2018-05-25T16:01:19.037Z,101119.34
2018-05-25T16:03:22.968Z,101116.73
2018-05-25T16:05:26.715Z,101114.63
2018-05-25T16:07:30.464Z,101115.53
2018-05-25T16:09:34.563Z,101120.50
2018-05-25T16:11:38.742Z,101116.19
2018-05-25T16:13:42.171Z,101117.93
2018-05-25T16:15:45.644Z,101109.83
2018-05-25T16:17:53.361Z,101103.89
2018-05-25T16:19:56.833Z,101113.26
2018-05-25T16:22:00.296Z,101107.47
2018-05-25T16:24:03.703Z,101103.45
2018-05-25T16:26:07.097Z,101106.19
2018-05-25T16:28:10.462Z,101105.59
2018-05-25T16:30:14.122Z,101108.52
2018-05-25T16:34:29.555Z,101108.34
2018-05-25T16:36:33.074Z,101106.25
2018-05-25T16:38:36.472Z,101107.09
2018-05-25T16:40:39.828Z,101120.08
2018-05-25T16:42:44.155Z,101114.89
2018-05-25T16:44:47.576Z,101112.69
2018-05-25T16:46:51.858Z,101102.06
2018-05-25T16:48:55.298Z,101117.28
2018-05-25T16:50:58.828Z,101102.70
2018-05-25T16:53:02.293Z,101111.31
2018-05-25T16:55:06.064Z,101103.19
2018-05-25T16:57:09.459Z,101104.84
2018-05-25T16:59:13.395Z,101106.00
2018-05-25T17:01:17.510Z,101098.41
2018-05-25T17:03:22.759Z,101090.50
2018-05-25T17:05:27.158Z,101098.67
2018-05-25T17:07:30.512Z,101108.16
2018-05-25T17:09:34.016Z,101098.55
2018-05-25T17:11:38.415Z,101092.58
2018-05-25T17:13:42.311Z,101100.02
2018-05-25T17:15:50.975Z,101097.22
2018-05-25T17:17:54.536Z,101102.44
2018-05-25T17:19:58.080Z,101110.78
2018-05-25T17:22:01.510Z,101102.69
2018-05-25T17:24:04.842Z,101106.12
2018-05-25T17:26:08.294Z,101105.94
2018-05-25T17:28:12.635Z,101105.53
2018-05-25T17:30:17.043Z,101109.36
2018-05-25T17:32:20.517Z,101104.69
2018-05-25T17:34:24.380Z,101077.37
2018-05-25T17:36:27.810Z,101101.41
2018-05-25T17:38:31.180Z,101101.96
2018-05-25T17:40:35.796Z,101105.56
2018-05-25T17:42:39.191Z,101108.63
2018-05-25T17:44:43.328Z,101098.24
2018-05-25T17:46:46.799Z,101112.47
2018-05-25T17:48:50.136Z,101116.00
2018-05-25T17:50:53.722Z,101106.36
2018-05-25T17:52:57.129Z,101114.48
2018-05-25T17:55:00.593Z,101114.25
2018-05-25T17:57:05.540Z,101112.20
2018-05-25T17:59:08.968Z,101110.72
2018-05-25T18:01:12.835Z,101118.57
2018-05-25T18:05:32.215Z,101123.22
2018-05-25T18:07:35.572Z,101124.88
2018-05-25T18:09:39.167Z,101115.05
2018-05-25T18:11:42.768Z,101122.34
2018-05-25T18:13:46.385Z,101117.27
2018-05-25T18:15:49.803Z,101120.08
2018-05-25T18:17:53.167Z,101125.48
2018-05-25T18:19:56.537Z,101124.67
2018-05-25T18:21:59.866Z,101110.02
2018-05-25T18:24:04.776Z,101129.26
2018-05-25T18:26:08.962Z,101125.84
2018-05-25T18:28:12.318Z,101128.08
2018-05-25T18:30:15.764Z,101131.26
2018-05-25T18:32:19.137Z,101128.22
2018-05-25T18:34:22.494Z,101126.06
2018-05-25T18:36:25.841Z,101136.14
2018-05-25T18:38:29.194Z,101123.09
2018-05-25T18:40:32.585Z,101129.20
2018-05-25T18:46:57.434Z,101123.12
2018-05-25T18:49:00.756Z,101122.70
2018-05-25T18:51:04.973Z,101125.30
2018-05-25T18:53:09.607Z,101047.18
2018-05-25T18:55:13.233Z,101128.80
2018-05-25T18:57:16.614Z,101127.93
2018-05-25T18:59:20.039Z,101132.73
2018-05-25T19:01:26.960Z,101114.84
2018-05-25T19:03:30.448Z,101133.17
2018-05-25T19:05:33.855Z,101132.30
2018-05-25T19:07:37.332Z,101121.78
2018-05-25T19:09:40.660Z,101139.63
2018-05-25T19:11:44.973Z,101127.83
2018-05-25T19:13:48.646Z,101135.66
2018-05-25T19:15:52.086Z,101137.41
2018-05-25T19:17:56.201Z,101143.05
2018-05-25T19:20:00.980Z,101138.20
2018-05-25T19:22:05.511Z,101142.11
2018-05-25T19:24:10.003Z,101143.38
2018-05-25T19:26:13.464Z,101142.98
2018-05-25T19:28:16.808Z,101142.92
2018-05-25T19:30:20.192Z,101144.59
2018-05-25T19:32:24.096Z,101146.28
2018-05-25T19:34:27.739Z,101151.50
2018-05-25T19:36:32.033Z,101154.08
2018-05-25T19:38:35.369Z,101154.14
2018-05-25T19:40:38.895Z,101153.68
2018-05-25T19:42:42.332Z,101156.71
2018-05-25T19:44:46.462Z,101160.17
2018-05-25T19:46:50.022Z,101157.05
2018-05-25T19:48:53.471Z,101162.70
2018-05-25T19:50:56.906Z,101163.97
2018-05-25T19:53:03.893Z,101171.33
2018-05-25T19:55:07.369Z,101170.94
2018-05-25T19:57:16.007Z,101167.41
2018-05-25T19:59:20.165Z,101175.20
2018-05-25T20:01:23.651Z,101181.70
2018-05-25T20:03:27.690Z,101167.31
2018-05-25T20:05:31.576Z,101176.48
2018-05-25T20:07:38.667Z,101176.47
2018-05-25T20:09:42.612Z,101164.15
2018-05-25T20:11:48.506Z,101177.27
2018-05-25T20:13:52.202Z,101171.92
2018-05-25T20:15:56.183Z,101173.58
2018-05-25T20:18:01.721Z,101174.83
2018-05-25T20:20:09.849Z,101176.09
2018-05-25T20:24:44.458Z,101146.23
2018-05-25T20:26:51.699Z,101167.66
2018-05-25T20:29:00.904Z,101164.09
2018-05-25T20:31:07.025Z,101157.50
2018-05-25T20:33:11.174Z,101159.64
2018-05-25T20:35:16.157Z,101150.38
2018-05-25T20:37:21.589Z,101169.11
2018-05-25T20:39:26.432Z,101102.08
2018-05-25T20:41:30.758Z,101170.80
2018-05-25T20:43:34.160Z,101169.41
2018-05-25T20:45:37.706Z,101148.00
2018-05-25T20:47:41.903Z,101162.42
2018-05-25T20:49:46.837Z,101162.73
2018-05-25T20:51:50.430Z,101159.62
2018-05-25T20:53:53.800Z,101164.41
2018-05-25T20:55:57.140Z,101162.61
2018-05-25T20:58:02.885Z,101126.73
2018-05-25T21:00:07.112Z,101166.53
2018-05-25T21:02:11.344Z,101144.59
2018-05-25T21:04:14.785Z,101155.53
2018-05-25T21:06:18.438Z,101164.65
2018-05-25T21:08:22.180Z,101115.56
2018-05-25T21:10:25.856Z,101164.09
2018-05-25T21:12:29.344Z,101184.88
2018-05-25T21:14:32.854Z,101152.59
2018-05-25T21:16:36.385Z,101165.41
2018-05-25T21:18:40.060Z,101169.23
2018-05-25T21:20:44.903Z,101126.29
2018-05-25T21:22:48.455Z,101116.17
2018-05-25T21:24:52.068Z,101118.27
2018-05-25T21:26:56.230Z,101159.84
2018-05-25T21:28:59.638Z,101173.96
2018-05-25T21:31:03.013Z,101172.63
2018-05-25T21:33:06.381Z,101151.87
2018-05-25T21:35:09.972Z,101161.05
2018-05-25T21:37:13.681Z,101146.97
2018-05-25T21:39:17.003Z,101174.48
2018-05-25T21:41:20.476Z,101184.48
2018-05-25T21:43:24.063Z,101150.70
2018-05-25T21:45:27.489Z,101172.15
2018-05-25T21:47:31.961Z,101179.09
2018-05-25T21:49:36.108Z,101182.54
2018-05-25T21:51:39.792Z,101137.46
2018-05-25T21:53:43.427Z,101184.26
2018-05-25T21:55:47.246Z,101189.06
2018-05-25T21:57:51.580Z,101187.24
2018-05-25T21:59:56.018Z,101188.55
2018-05-25T22:02:00.406Z,101186.33
2018-05-25T22:04:03.907Z,101184.03
2018-05-25T22:06:07.362Z,101189.72
2018-05-25T22:08:11.379Z,101195.83
2018-05-25T22:10:14.744Z,101197.49
2018-05-25T22:12:18.888Z,101193.08
2018-05-25T22:14:22.271Z,101199.52
2018-05-25T22:16:25.717Z,101203.37
2018-05-25T22:18:29.116Z,101202.91
2018-05-25T22:20:32.480Z,101200.63
2018-05-25T22:22:35.828Z,101211.58
2018-05-25T22:24:39.200Z,101204.61
2018-05-25T22:26:42.598Z,101208.46
2018-05-25T22:28:46.005Z,101210.97
2018-05-25T22:30:49.510Z,101212.67
2018-05-25T22:32:53.927Z,101210.46
2018-05-25T22:34:57.477Z,101220.84
2018-05-25T22:37:00.887Z,101216.41
2018-05-25T22:39:05.049Z,101190.53
2018-05-25T22:41:08.642Z,101075.64
2018-05-25T22:43:29.850Z,101175.54
2018-05-25T22:45:50.786Z,101194.31
2018-05-25T22:48:11.884Z,101152.80
2018-05-25T22:50:33.267Z,101222.72
2018-05-25T22:52:41.372Z,101220.06
2018-05-25T22:54:44.790Z,101193.39
2018-05-25T22:56:48.170Z,101225.73
2018-05-25T22:58:59.376Z,101204.55
2018-05-25T23:01:03.512Z,101231.70
2018-05-25T23:03:12.874Z,101211.92
2018-05-25T23:05:16.407Z,101220.04
2018-05-25T23:07:20.575Z,101216.96
2018-05-25T23:09:25.540Z,101219.59
2018-05-25T23:11:28.979Z,101163.80
2018-05-25T23:13:32.337Z,101234.42
2018-05-25T23:15:36.455Z,101233.06
2018-05-25T23:17:39.871Z,101236.88
2018-05-25T23:19:44.198Z,101210.62
2018-05-25T23:21:47.579Z,101229.34
2018-05-25T23:23:51.869Z,101196.84
2018-05-25T23:25:58.979Z,101215.21
2018-05-25T23:28:03.341Z,101230.63
2018-05-25T23:30:06.724Z,101217.92
2018-05-25T23:32:10.069Z,101222.31
2018-05-25T23:34:13.458Z,101214.86
2018-05-25T23:36:16.845Z,101209.53
2018-05-25T23:38:20.274Z,101219.61
2018-05-25T23:40:23.835Z,101214.59
2018-05-25T23:42:27.296Z,101218.77
2018-05-25T23:44:30.666Z,101211.20
2018-05-25T23:46:34.239Z,101182.59
2018-05-25T23:48:37.687Z,101226.00
2018-05-25T23:50:41.130Z,101099.81
2018-05-25T23:52:44.713Z,101215.75
2018-05-25T23:54:48.153Z,101206.13
2018-05-25T23:56:51.487Z,101200.45
2018-05-25T23:58:54.971Z,101204.65
